createdAt,value
2019-05-01T00:05:15.460Z,100452.59
2019-05-01T00:10:19.488Z,100452.80
2019-05-01T00:15:23.627Z,100442.05
2019-05-01T00:20:25.707Z,100426.95
2019-05-01T00:25:28.094Z,100433.02
2019-05-01T00:30:31.360Z,100431.48
2019-05-01T00:35:33.702Z,100423.75
2019-05-01T00:40:35.804Z,100428.47
2019-05-01T00:45:38.279Z,100418.73
2019-05-01T00:50:40.392Z,100425.78
2019-05-01T00:56:08.318Z,100417.74
2019-05-01T01:01:24.944Z,100412.02
2019-05-01T01:06:27.047Z,100409.67
2019-05-01T01:11:29.112Z,100413.02
2019-05-01T01:16:31.654Z,100413.37
2019-05-01T01:21:34.890Z,100401.12
2019-05-01T01:26:37.119Z,100405.16
2019-05-01T01:31:39.362Z,100397.26
2019-05-01T01:36:41.655Z,100402.78
2019-05-01T01:41:44.820Z,100400.94
2019-05-01T01:46:48.901Z,100388.66
2019-05-01T01:51:51.235Z,100377.92
2019-05-01T01:56:53.399Z,100377.56
2019-05-01T02:02:08.259Z,100378.89
2019-05-01T02:07:11.452Z,100378.91
2019-05-01T02:12:14.145Z,100369.98
2019-05-01T02:17:17.455Z,100373.22
2019-05-01T02:22:20.071Z,100365.61
2019-05-01T02:27:27.987Z,100361.23
2019-05-01T02:32:31.205Z,100353.52
2019-05-01T02:37:33.819Z,100345.63
2019-05-01T02:42:39.064Z,100347.16
2019-05-01T02:47:43.264Z,100343.09
2019-05-01T02:52:45.699Z,100337.73
2019-05-01T02:57:48.171Z,100342.45
2019-05-01T03:02:50.572Z,100327.67
2019-05-01T03:07:52.948Z,100334.73
2019-05-01T03:12:56.204Z,100334.91
2019-05-01T03:18:19.234Z,100335.73
2019-05-01T03:23:27.638Z,100332.03
2019-05-01T03:28:30.517Z,100327.84
2019-05-01T03:33:33.286Z,100326.19
2019-05-01T03:38:36.067Z,100323.48
2019-05-01T03:43:39.151Z,100317.95
2019-05-01T03:48:42.455Z,100314.78
2019-05-01T03:53:44.926Z,100310.23
2019-05-01T03:58:48.378Z,100312.42
2019-05-01T04:03:53.643Z,100308.73
2019-05-01T04:08:56.715Z,100308.55
2019-05-01T04:13:59.937Z,100309.05
2019-05-01T04:19:03.410Z,100319.97
2019-05-01T04:24:05.800Z,100313.09
2019-05-01T04:29:30.837Z,100312.41
2019-05-01T04:34:59.167Z,100314.58
2019-05-01T04:40:01.262Z,100311.55
2019-05-01T04:45:03.484Z,100318.13
2019-05-01T04:50:05.672Z,100323.31
2019-05-01T04:55:07.835Z,100335.91
2019-05-01T05:00:10.812Z,100329.73
2019-05-01T05:05:13.309Z,100332.42
2019-05-01T05:10:15.773Z,100330.03
2019-05-01T05:15:28.534Z,100342.31
2019-05-01T05:20:31.021Z,100339.11
2019-05-01T05:25:33.835Z,100339.11
2019-05-01T05:30:42.830Z,100341.80
2019-05-01T05:35:47.295Z,100342.64
2019-05-01T05:40:50.819Z,100350.02
2019-05-01T05:45:52.927Z,100347.31
2019-05-01T05:51:10.817Z,100346.29
2019-05-01T05:56:25.355Z,100343.43
2019-05-01T06:01:45.731Z,100353.95
2019-05-01T06:07:10.085Z,100352.22
2019-05-01T06:12:29.516Z,100352.61
2019-05-01T06:17:45.980Z,100348.75
2019-05-01T06:23:10.302Z,100350.81
2019-05-01T06:28:12.582Z,100346.27
2019-05-01T06:33:14.938Z,100348.82
2019-05-01T06:38:21.392Z,100346.75
2019-05-01T06:43:52.584Z,100359.87
2019-05-01T06:49:02.324Z,100347.12
2019-05-01T06:54:11.517Z,100348.83
2019-05-01T06:59:13.588Z,100344.08
2019-05-01T07:04:15.835Z,100353.77
2019-05-01T07:09:28.133Z,100352.23
2019-05-01T07:14:28.328Z,100339.73
2019-05-01T07:19:49.438Z,100350.65
2019-05-01T07:24:52.255Z,100347.86
2019-05-01T07:29:57.860Z,100351.39
2019-05-01T07:35:02.022Z,100349.00
2019-05-01T07:40:05.155Z,100343.81
2019-05-01T07:45:28.337Z,100345.16
2019-05-01T07:50:32.611Z,100354.12
2019-05-01T07:55:37.818Z,100353.53
2019-05-01T08:00:51.939Z,100355.00
2019-05-01T08:05:53.955Z,100358.24
2019-05-01T08:10:59.905Z,100347.39
2019-05-01T08:16:01.996Z,100357.81
2019-05-01T08:21:27.569Z,100355.59
2019-05-01T08:26:30.987Z,100359.44
2019-05-01T08:31:40.821Z,100360.98
2019-05-01T08:36:47.291Z,100367.24
2019-05-01T08:41:51.988Z,100363.24
2019-05-01T08:47:09.546Z,100366.37
2019-05-01T08:52:13.900Z,100359.63
2019-05-01T08:57:15.929Z,100350.34
2019-05-01T09:02:19.225Z,100344.16
2019-05-01T09:07:24.009Z,100342.45
2019-05-01T09:12:25.231Z,100353.48
2019-05-01T09:17:27.667Z,100348.00
2019-05-01T09:22:30.271Z,100346.63
2019-05-01T09:27:48.362Z,100343.13
2019-05-01T09:32:54.280Z,100343.95
2019-05-01T09:37:54.643Z,100336.09
2019-05-01T09:42:59.330Z,100334.19
2019-05-01T09:48:02.460Z,100330.73
2019-05-01T09:53:24.090Z,100332.70
2019-05-01T09:58:26.883Z,100330.34
2019-05-01T10:03:29.976Z,100329.38
2019-05-01T10:08:34.849Z,100322.86
2019-05-01T10:13:36.264Z,100323.97
2019-05-01T10:18:39.608Z,100316.13
2019-05-01T10:23:41.595Z,100304.56
2019-05-01T10:29:10.455Z,100305.81
2019-05-01T10:34:25.006Z,100305.22
2019-05-01T10:39:30.110Z,100295.33
2019-05-01T10:44:31.462Z,100300.31
2019-05-01T10:49:33.590Z,100292.50
2019-05-01T10:54:36.672Z,100283.65
2019-05-01T10:59:38.884Z,100280.59
2019-05-01T11:04:41.165Z,100283.00
2019-05-01T11:09:43.314Z,100287.28
2019-05-01T11:14:45.390Z,100277.45
2019-05-01T11:19:47.489Z,100270.87
2019-05-01T11:24:49.658Z,100268.68
2019-05-01T11:29:51.896Z,100258.95
2019-05-01T11:35:10.719Z,100261.83
2019-05-01T11:40:35.159Z,100258.81
2019-05-01T11:45:37.285Z,100250.81
2019-05-01T11:50:39.366Z,100245.71
2019-05-01T11:55:41.401Z,100241.71
2019-05-01T12:00:45.127Z,100238.28
2019-05-01T12:05:47.318Z,100241.43
2019-05-01T12:10:49.325Z,100233.57
2019-05-01T12:15:58.435Z,100224.27
2019-05-01T12:21:00.520Z,100219.06
2019-05-01T12:26:02.647Z,100206.14
2019-05-01T12:31:04.821Z,100207.08
2019-05-01T12:36:07.643Z,100214.28
2019-05-01T12:41:23.631Z,100208.96
2019-05-01T12:46:47.418Z,100205.78
2019-05-01T12:51:52.151Z,100205.93
2019-05-01T12:56:55.653Z,100200.25
2019-05-01T13:01:57.976Z,100190.95
2019-05-01T13:07:00.242Z,100191.44
2019-05-01T13:12:02.425Z,100190.00
2019-05-01T13:17:04.607Z,100174.08
2019-05-01T13:22:06.813Z,100181.21
2019-05-01T13:27:15.367Z,100160.29
2019-05-01T13:32:45.832Z,100157.70
2019-05-01T13:37:48.010Z,100152.48
2019-05-01T13:42:50.995Z,100140.06
2019-05-01T13:47:54.645Z,100134.27
2019-05-01T13:52:56.994Z,100135.75
2019-05-01T13:57:59.107Z,100119.98
2019-05-01T14:03:01.278Z,100115.56
2019-05-01T14:08:03.675Z,100109.62
2019-05-01T14:13:05.943Z,100102.73
2019-05-01T14:18:08.122Z,100099.83
2019-05-01T14:23:17.095Z,100105.83
2019-05-01T14:28:19.427Z,100089.09
2019-05-01T14:33:21.555Z,100085.79
2019-05-01T14:38:26.850Z,100088.89
2019-05-01T14:43:29.264Z,100086.46
2019-05-01T14:48:31.948Z,100079.82
2019-05-01T14:53:34.017Z,100075.20
2019-05-01T14:58:36.484Z,100080.56
2019-05-01T15:03:38.571Z,100066.19
2019-05-01T15:08:40.797Z,100069.68
2019-05-01T15:13:59.187Z,100062.95
2019-05-01T15:19:08.127Z,100060.16
2019-05-01T15:24:10.328Z,100058.55
2019-05-01T15:29:12.547Z,100056.97
2019-05-01T15:34:14.816Z,100054.79
2019-05-01T15:39:25.539Z,100049.18
2019-05-01T15:44:30.399Z,100044.73
2019-05-01T15:49:34.051Z,100050.33
2019-05-01T15:54:36.063Z,100040.34
2019-05-01T15:59:39.353Z,100028.48
2019-05-01T16:04:41.322Z,100037.87
2019-05-01T16:09:43.567Z,100033.45
2019-05-01T16:14:47.725Z,100034.91
2019-05-01T16:19:49.942Z,100028.03
2019-05-01T16:24:52.318Z,100028.47
2019-05-01T16:29:54.312Z,100019.41
2019-05-01T16:34:56.576Z,100018.80
2019-05-01T16:40:07.802Z,100014.73
2019-05-01T16:45:12.311Z,100014.83
2019-05-01T16:50:14.612Z,100005.70
2019-05-01T16:55:17.191Z,100006.14
2019-05-01T17:00:36.463Z,100003.78
2019-05-01T17:05:51.198Z,100002.19
2019-05-01T17:10:53.685Z,99993.59
2019-05-01T17:15:55.915Z,99991.41
2019-05-01T17:20:58.235Z,99997.23
2019-05-01T17:26:00.412Z,99993.55
2019-05-01T17:31:02.797Z,99986.09
2019-05-01T17:36:05.096Z,99987.89
2019-05-01T17:41:07.342Z,99989.90
2019-05-01T17:46:10.759Z,99988.11
2019-05-01T17:51:13.357Z,99986.31
2019-05-01T17:56:19.593Z,99983.39
2019-05-01T18:01:44.025Z,99987.90
2019-05-01T18:06:48.228Z,99983.53
2019-05-01T18:11:52.202Z,99981.56
2019-05-01T18:16:54.219Z,99981.54
2019-05-01T18:22:06.686Z,99980.91
2019-05-01T18:27:28.528Z,99980.44
2019-05-01T18:32:36.456Z,99977.73
2019-05-01T18:38:06.357Z,99982.70
2019-05-01T18:43:07.340Z,99983.33
2019-05-01T18:48:09.635Z,99971.25
2019-05-01T18:53:12.670Z,99985.35
2019-05-01T18:58:14.900Z,99992.41
2019-05-01T19:03:17.104Z,99987.90
2019-05-01T19:08:19.198Z,99989.87
2019-05-01T19:13:21.347Z,99993.37
2019-05-01T19:18:23.537Z,99995.55
2019-05-01T19:23:27.935Z,99992.52
2019-05-01T19:28:29.669Z,99989.62
2019-05-01T19:33:32.327Z,99994.41
2019-05-01T19:38:36.737Z,99991.38
2019-05-01T19:43:40.558Z,99984.03
2019-05-01T19:48:45.500Z,99983.52
2019-05-01T19:53:51.538Z,99975.83
2019-05-01T19:58:50.445Z,99975.50
2019-05-01T20:03:52.721Z,99975.68
2019-05-01T20:08:54.758Z,99975.25
2019-05-01T20:13:57.274Z,99977.65
2019-05-01T20:19:03.098Z,99975.92
2019-05-01T20:24:11.127Z,99976.88
2019-05-01T20:29:13.481Z,99967.20
2019-05-01T20:34:17.372Z,99965.05
2019-05-01T20:39:19.627Z,99959.19
2019-05-01T20:44:24.250Z,99962.84
2019-05-01T20:49:26.040Z,99958.31
2019-05-01T20:54:29.142Z,99957.23
2019-05-01T20:59:35.222Z,99958.36
2019-05-01T21:04:48.925Z,99946.91
2019-05-01T21:09:56.861Z,99942.60
2019-05-01T21:14:55.214Z,99943.70
2019-05-01T21:19:57.302Z,99947.66
2019-05-01T21:24:59.500Z,99944.34
2019-05-01T21:30:03.860Z,99944.95
2019-05-01T21:35:07.642Z,99943.52
2019-05-01T21:40:12.873Z,99937.37
2019-05-01T21:45:15.231Z,99936.02
2019-05-01T21:50:17.815Z,99933.02
2019-05-01T21:55:21.427Z,99933.79
2019-05-01T22:00:26.373Z,99928.91
2019-05-01T22:05:34.733Z,99924.75
2019-05-01T22:10:34.606Z,99922.33
2019-05-01T22:15:41.926Z,99917.06
2019-05-01T22:21:09.792Z,99915.66
2019-05-01T22:26:11.919Z,99913.72
2019-05-01T22:31:52.938Z,99905.37
2019-05-01T22:36:55.910Z,99903.84
2019-05-01T22:41:58.100Z,99905.88
2019-05-01T22:47:01.276Z,99898.77
2019-05-01T22:52:03.509Z,99897.11
2019-05-01T22:57:05.585Z,99898.84
2019-05-01T23:02:18.537Z,99893.69
2019-05-01T23:07:20.753Z,99892.97
2019-05-01T23:12:23.068Z,99889.68
2019-05-01T23:17:39.268Z,99883.17
2019-05-01T23:22:38.915Z,99883.69
2019-05-01T23:27:40.987Z,99881.75
2019-05-01T23:32:43.232Z,99872.33
2019-05-01T23:37:45.269Z,99860.67
2019-05-01T23:42:52.317Z,99855.06
2019-05-01T23:47:51.210Z,99849.88
2019-05-01T23:52:54.454Z,99845.34
2019-05-01T23:57:56.642Z,99839.49
